Farelly Lake, Arkansas
Current Conditions -  °F | °C
As of 2:35 AM on Monday 24 Nov 2014 (Local Time) from KSGT Reporting Station
Overcast Overcast  
Wind Chill: 55°   Ceiling: 3200
Heat Index: 55°   Visibility: 10mi
Dew Point: 46°   Wind: 26mph
Humidity: 72%   Direction: 260°W
Pressure: 29.58"   Gusts: 35mph
Location:  34.3615°N, 91.5213°W
Report Text: KSGT 240835Z AUTO 26023G30KT 10SM SCT023 BKN032 OVC047 13/08 A2958 RMK AO1
Loading
Personal Weather Stations






























Interactive Weather Map New forecast layout! Learn more

10-Day Weather Forecast

Advertisements
Track Severe Weather on mobile